Terminal Aerodrome Forecast
Issued by NWS Blacksburg, VA

Home | Current Version | Previous Version | Text Only | Print | Product List | Glossary On
Versions: 1 2 3 4 5 6 7 8 9 10 11 12 13 14 15 16 17 18 19 20 21 22 23 24 25 26 27
438
FTUS41 KRNK 240730 AAA
TAFROA
TAF AMD
KROA 240730Z 2408/2506 10008KT 6SM -RA BR OVC022
      TEMPO 2408/2410 3SM RA OVC008
     FM241100 07010KT 5SM -RA BR OVC005
     FM241500 07010KT 6SM -RA OVC007
     FM241800 05005KT 2SM RA BR OVC003
     FM250500 35005KT P6SM OVC010=

USA.gov is the U.S. government's official web portal to all federal, state and local government web resources and services.